sensor_id;sensor_type;location;lat;lon;timestamp;P1;durP1;ratioP1;P2;durP2;ratioP2
3943;SDS011;1986;52.546;13.428;2022-09-09T00:01:51;0.40;;;0.40;;
3943;SDS011;1986;52.546;13.428;2022-09-09T00:04:25;0.40;;;0.40;;
3943;SDS011;1986;52.546;13.428;2022-09-09T00:06:56;0.40;;;0.40;;
3943;SDS011;1986;52.546;13.428;2022-09-09T00:09:29;0.40;;;0.40;;
3943;SDS011;1986;52.546;13.428;2022-09-09T00:12:05;0.40;;;0.40;;
3943;SDS011;1986;52.546;13.428;2022-09-09T00:14:39;0.40;;;0.40;;
3943;SDS011;1986;52.546;13.428;2022-09-09T00:17:24;0.40;;;0.40;;
3943;SDS011;1986;52.546;13.428;2022-09-09T00:20:00;0.30;;;0.30;;
3943;SDS011;1986;52.546;13.428;2022-09-09T00:22:29;0.37;;;0.37;;
3943;SDS011;1986;52.546;13.428;2022-09-09T00:25:00;0.97;;;0.60;;
3943;SDS011;1986;52.546;13.428;2022-09-09T00:27:37;0.30;;;0.30;;
3943;SDS011;1986;52.546;13.428;2022-09-09T00:30:14;0.30;;;0.30;;
3943;SDS011;1986;52.546;13.428;2022-09-09T00:32:46;0.30;;;0.30;;
3943;SDS011;1986;52.546;13.428;2022-09-09T00:35:15;0.30;;;0.30;;
3943;SDS011;1986;52.546;13.428;2022-09-09T00:37:44;0.30;;;0.30;;
3943;SDS011;1986;52.546;13.428;2022-09-09T00:40:16;0.30;;;0.30;;
3943;SDS011;1986;52.546;13.428;2022-09-09T00:42:49;0.30;;;0.30;;
3943;SDS011;1986;52.546;13.428;2022-09-09T00:45:27;0.30;;;0.30;;
3943;SDS011;1986;52.546;13.428;2022-09-09T00:48:05;0.73;;;0.73;;
3943;SDS011;1986;52.546;13.428;2022-09-09T00:50:39;0.30;;;0.30;;
3943;SDS011;1986;52.546;13.428;2022-09-09T00:53:23;0.40;;;0.40;;
3943;SDS011;1986;52.546;13.428;2022-09-09T00:55:59;0.30;;;0.30;;
3943;SDS011;1986;52.546;13.428;2022-09-09T00:58:31;0.30;;;0.30;;
3943;SDS011;1986;52.546;13.428;2022-09-09T01:01:00;0.30;;;0.30;;
3943;SDS011;1986;52.546;13.428;2022-09-09T01:03:35;0.30;;;0.30;;
3943;SDS011;1986;52.546;13.428;2022-09-09T01:06:14;1.43;;;1.43;;
3943;SDS011;1986;52.546;13.428;2022-09-09T01:08:48;0.30;;;0.30;;
3943;SDS011;1986;52.546;13.428;2022-09-09T01:11:33;0.30;;;0.30;;
3943;SDS011;1986;52.546;13.428;2022-09-09T01:14:13;0.50;;;0.50;;
3943;SDS011;1986;52.546;13.428;2022-09-09T01:16:46;0.30;;;0.30;;
3943;SDS011;1986;52.546;13.428;2022-09-09T01:19:17;0.30;;;0.30;;
3943;SDS011;1986;52.546;13.428;2022-09-09T01:21:52;0.30;;;0.30;;
3943;SDS011;1986;52.546;13.428;2022-09-09T01:24:24;0.30;;;0.30;;
3943;SDS011;1986;52.546;13.428;2022-09-09T01:27:02;0.30;;;0.30;;
3943;SDS011;1986;52.546;13.428;2022-09-09T01:29:31;0.30;;;0.30;;
3943;SDS011;1986;52.546;13.428;2022-09-09T01:31:59;0.30;;;0.30;;
3943;SDS011;1986;52.546;13.428;2022-09-09T01:34:29;0.30;;;0.30;;
3943;SDS011;1986;52.546;13.428;2022-09-09T01:36:59;0.30;;;0.30;;
3943;SDS011;1986;52.546;13.428;2022-09-09T01:39:29;0.30;;;0.30;;
3943;SDS011;1986;52.546;13.428;2022-09-09T01:41:57;0.30;;;0.30;;
3943;SDS011;1986;52.546;13.428;2022-09-09T01:44:25;2.00;;;0.70;;
3943;SDS011;1986;52.546;13.428;2022-09-09T01:46:55;3.70;;;2.93;;
3943;SDS011;1986;52.546;13.428;2022-09-09T01:49:23;0.30;;;0.30;;
3943;SDS011;1986;52.546;13.428;2022-09-09T01:51:50;0.30;;;0.30;;
3943;SDS011;1986;52.546;13.428;2022-09-09T01:54:19;0.30;;;0.30;;
3943;SDS011;1986;52.546;13.428;2022-09-09T01:56:50;0.40;;;0.40;;
3943;SDS011;1986;52.546;13.428;2022-09-09T02:02:18;0.30;;;0.30;;
3943;SDS011;1986;52.546;13.428;2022-09-09T02:04:49;0.30;;;0.30;;
3943;SDS011;1986;52.546;13.428;2022-09-09T02:07:26;0.30;;;0.30;;
3943;SDS011;1986;52.546;13.428;2022-09-09T02:10:02;0.30;;;0.30;;
3943;SDS011;1986;52.546;13.428;2022-09-09T02:12:34;0.30;;;0.30;;
3943;SDS011;1986;52.546;13.428;2022-09-09T02:15:07;0.40;;;0.40;;
3943;SDS011;1986;52.546;13.428;2022-09-09T02:17:39;0.30;;;0.30;;
3943;SDS011;1986;52.546;13.428;2022-09-09T02:20:09;0.37;;;0.37;;
3943;SDS011;1986;52.546;13.428;2022-09-09T02:22:39;0.30;;;0.30;;
3943;SDS011;1986;52.546;13.428;2022-09-09T02:25:09;0.30;;;0.30;;
3943;SDS011;1986;52.546;13.428;2022-09-09T02:27:39;0.30;;;0.30;;
3943;SDS011;1986;52.546;13.428;2022-09-09T02:30:11;0.30;;;0.30;;
3943;SDS011;1986;52.546;13.428;2022-09-09T02:32:40;0.30;;;0.30;;
3943;SDS011;1986;52.546;13.428;2022-09-09T02:35:08;0.90;;;0.70;;
3943;SDS011;1986;52.546;13.428;2022-09-09T02:37:39;0.30;;;0.30;;
3943;SDS011;1986;52.546;13.428;2022-09-09T02:40:11;4.43;;;1.80;;
3943;SDS011;1986;52.546;13.428;2022-09-09T02:42:40;0.37;;;0.37;;
3943;SDS011;1986;52.546;13.428;2022-09-09T02:45:08;0.30;;;0.30;;
3943;SDS011;1986;52.546;13.428;2022-09-09T02:47:38;1.13;;;1.13;;
3943;SDS011;1986;52.546;13.428;2022-09-09T02:50:12;0.30;;;0.30;;
3943;SDS011;1986;52.546;13.428;2022-09-09T02:52:45;0.30;;;0.30;;
3943;SDS011;1986;52.546;13.428;2022-09-09T02:55:22;0.30;;;0.30;;
3943;SDS011;1986;52.546;13.428;2022-09-09T02:57:57;0.30;;;0.30;;
3943;SDS011;1986;52.546;13.428;2022-09-09T03:00:26;0.30;;;0.30;;
3943;SDS011;1986;52.546;13.428;2022-09-09T03:02:57;0.30;;;0.30;;
3943;SDS011;1986;52.546;13.428;2022-09-09T03:05:26;0.20;;;0.20;;
3943;SDS011;1986;52.546;13.428;2022-09-09T03:07:53;0.30;;;0.30;;
3943;SDS011;1986;52.546;13.428;2022-09-09T03:10:19;0.30;;;0.30;;
3943;SDS011;1986;52.546;13.428;2022-09-09T03:12:46;0.30;;;0.30;;
3943;SDS011;1986;52.546;13.428;2022-09-09T03:15:13;0.30;;;0.30;;
3943;SDS011;1986;52.546;13.428;2022-09-09T03:17:42;0.30;;;0.30;;
3943;SDS011;1986;52.546;13.428;2022-09-09T03:20:09;0.30;;;0.30;;
3943;SDS011;1986;52.546;13.428;2022-09-09T03:22:37;0.30;;;0.30;;
3943;SDS011;1986;52.546;13.428;2022-09-09T03:25:04;0.40;;;0.40;;
3943;SDS011;1986;52.546;13.428;2022-09-09T03:27:31;0.50;;;0.50;;
3943;SDS011;1986;52.546;13.428;2022-09-09T03:29:58;0.77;;;0.53;;
3943;SDS011;1986;52.546;13.428;2022-09-09T03:32:29;0.30;;;0.30;;
3943;SDS011;1986;52.546;13.428;2022-09-09T03:34:57;0.40;;;0.40;;
3943;SDS011;1986;52.546;13.428;2022-09-09T03:37:26;0.30;;;0.30;;
3943;SDS011;1986;52.546;13.428;2022-09-09T03:39:53;0.30;;;0.30;;
3943;SDS011;1986;52.546;13.428;2022-09-09T03:42:20;0.20;;;0.20;;
3943;SDS011;1986;52.546;13.428;2022-09-09T03:44:47;0.30;;;0.30;;
3943;SDS011;1986;52.546;13.428;2022-09-09T03:47:16;0.30;;;0.30;;
3943;SDS011;1986;52.546;13.428;2022-09-09T03:49:44;0.30;;;0.30;;
3943;SDS011;1986;52.546;13.428;2022-09-09T03:52:13;0.20;;;0.20;;
3943;SDS011;1986;52.546;13.428;2022-09-09T03:54:39;0.30;;;0.30;;
3943;SDS011;1986;52.546;13.428;2022-09-09T03:57:07;0.30;;;0.30;;
3943;SDS011;1986;52.546;13.428;2022-09-09T03:59:38;0.30;;;0.30;;
3943;SDS011;1986;52.546;13.428;2022-09-09T04:02:05;0.30;;;0.30;;
3943;SDS011;1986;52.546;13.428;2022-09-09T04:04:32;0.30;;;0.30;;
3943;SDS011;1986;52.546;13.428;2022-09-09T04:07:02;0.30;;;0.30;;
3943;SDS011;1986;52.546;13.428;2022-09-09T04:09:32;0.30;;;0.30;;
3943;SDS011;1986;52.546;13.428;2022-09-09T04:11:59;0.30;;;0.30;;
3943;SDS011;1986;52.546;13.428;2022-09-09T04:14:26;0.30;;;0.30;;
3943;SDS011;1986;52.546;13.428;2022-09-09T04:16:54;0.30;;;0.30;;
3943;SDS011;1986;52.546;13.428;2022-09-09T04:19:23;0.30;;;0.30;;
3943;SDS011;1986;52.546;13.428;2022-09-09T04:21:50;0.30;;;0.30;;
3943;SDS011;1986;52.546;13.428;2022-09-09T04:24:16;0.30;;;0.30;;
3943;SDS011;1986;52.546;13.428;2022-09-09T04:26:45;0.30;;;0.30;;
3943;SDS011;1986;52.546;13.428;2022-09-09T04:29:12;0.30;;;0.30;;
3943;SDS011;1986;52.546;13.428;2022-09-09T04:31:39;0.30;;;0.30;;
3943;SDS011;1986;52.546;13.428;2022-09-09T04:34:07;0.30;;;0.30;;
3943;SDS011;1986;52.546;13.428;2022-09-09T04:36:34;0.30;;;0.30;;
3943;SDS011;1986;52.546;13.428;2022-09-09T04:39:01;0.30;;;0.30;;
3943;SDS011;1986;52.546;13.428;2022-09-09T04:41:28;0.30;;;0.30;;
3943;SDS011;1986;52.546;13.428;2022-09-09T04:43:59;0.40;;;0.40;;
3943;SDS011;1986;52.546;13.428;2022-09-09T04:46:27;0.30;;;0.30;;
3943;SDS011;1986;52.546;13.428;2022-09-09T04:48:54;0.30;;;0.30;;
3943;SDS011;1986;52.546;13.428;2022-09-09T04:51:25;0.30;;;0.30;;
3943;SDS011;1986;52.546;13.428;2022-09-09T04:53:53;0.40;;;0.40;;
3943;SDS011;1986;52.546;13.428;2022-09-09T04:56:21;0.30;;;0.30;;
3943;SDS011;1986;52.546;13.428;2022-09-09T04:58:51;0.60;;;0.60;;
3943;SDS011;1986;52.546;13.428;2022-09-09T05:01:23;0.30;;;0.30;;
3943;SDS011;1986;52.546;13.428;2022-09-09T05:03:57;0.40;;;0.40;;
3943;SDS011;1986;52.546;13.428;2022-09-09T05:06:25;0.30;;;0.30;;
3943;SDS011;1986;52.546;13.428;2022-09-09T05:08:57;0.40;;;0.40;;
3943;SDS011;1986;52.546;13.428;2022-09-09T05:11:27;0.30;;;0.30;;
3943;SDS011;1986;52.546;13.428;2022-09-09T05:13:55;0.30;;;0.30;;
3943;SDS011;1986;52.546;13.428;2022-09-09T05:16:24;0.40;;;0.40;;
3943;SDS011;1986;52.546;13.428;2022-09-09T05:18:53;0.30;;;0.30;;
3943;SDS011;1986;52.546;13.428;2022-09-09T05:21:20;0.40;;;0.40;;
3943;SDS011;1986;52.546;13.428;2022-09-09T05:23:50;0.30;;;0.30;;
3943;SDS011;1986;52.546;13.428;2022-09-09T05:26:18;0.50;;;0.50;;
3943;SDS011;1986;52.546;13.428;2022-09-09T05:28:46;0.30;;;0.30;;
3943;SDS011;1986;52.546;13.428;2022-09-09T05:31:13;0.30;;;0.30;;
3943;SDS011;1986;52.546;13.428;2022-09-09T05:33:44;0.60;;;0.60;;
3943;SDS011;1986;52.546;13.428;2022-09-09T05:36:15;1.13;;;0.60;;
3943;SDS011;1986;52.546;13.428;2022-09-09T05:38:43;1.17;;;1.17;;
3943;SDS011;1986;52.546;13.428;2022-09-09T05:41:10;1.50;;;1.50;;
3943;SDS011;1986;52.546;13.428;2022-09-09T05:43:40;0.50;;;0.50;;
3943;SDS011;1986;52.546;13.428;2022-09-09T05:46:10;1.73;;;1.63;;
3943;SDS011;1986;52.546;13.428;2022-09-09T05:48:38;1.07;;;1.07;;
3943;SDS011;1986;52.546;13.428;2022-09-09T05:51:12;1.40;;;1.40;;
3943;SDS011;1986;52.546;13.428;2022-09-09T05:53:42;1.50;;;1.50;;
3943;SDS011;1986;52.546;13.428;2022-09-09T05:56:10;2.30;;;2.30;;
3943;SDS011;1986;52.546;13.428;2022-09-09T05:58:39;2.90;;;2.90;;
3943;SDS011;1986;52.546;13.428;2022-09-09T06:01:09;4.10;;;4.00;;
3943;SDS011;1986;52.546;13.428;2022-09-09T06:03:41;3.53;;;3.53;;
3943;SDS011;1986;52.546;13.428;2022-09-09T06:06:11;6.83;;;6.67;;
3943;SDS011;1986;52.546;13.428;2022-09-09T06:08:39;7.23;;;7.03;;
3943;SDS011;1986;52.546;13.428;2022-09-09T06:11:09;7.30;;;7.20;;
3943;SDS011;1986;52.546;13.428;2022-09-09T06:13:38;8.20;;;8.10;;
3943;SDS011;1986;52.546;13.428;2022-09-09T06:16:05;9.30;;;9.10;;
3943;SDS011;1986;52.546;13.428;2022-09-09T06:18:36;10.27;;;9.97;;
3943;SDS011;1986;52.546;13.428;2022-09-09T06:21:04;10.27;;;10.07;;
3943;SDS011;1986;52.546;13.428;2022-09-09T06:23:35;10.30;;;10.10;;
3943;SDS011;1986;52.546;13.428;2022-09-09T06:26:12;12.03;;;11.73;;
3943;SDS011;1986;52.546;13.428;2022-09-09T06:28:42;11.80;;;11.40;;
3943;SDS011;1986;52.546;13.428;2022-09-09T06:31:11;11.60;;;11.30;;
3943;SDS011;1986;52.546;13.428;2022-09-09T06:33:47;12.37;;;11.97;;
3943;SDS011;1986;52.546;13.428;2022-09-09T06:36:16;12.50;;;12.10;;
3943;SDS011;1986;52.546;13.428;2022-09-09T06:38:47;13.50;;;13.00;;
3943;SDS011;1986;52.546;13.428;2022-09-09T06:41:15;12.00;;;11.67;;
3943;SDS011;1986;52.546;13.428;2022-09-09T06:43:43;12.90;;;12.50;;
3943;SDS011;1986;52.546;13.428;2022-09-09T06:46:11;12.70;;;12.30;;
3943;SDS011;1986;52.546;13.428;2022-09-09T06:48:40;11.10;;;10.80;;
3943;SDS011;1986;52.546;13.428;2022-09-09T06:51:10;11.23;;;10.93;;
3943;SDS011;1986;52.546;13.428;2022-09-09T06:53:39;11.20;;;10.70;;
3943;SDS011;1986;52.546;13.428;2022-09-09T06:56:18;10.30;;;10.10;;
3943;SDS011;1986;52.546;13.428;2022-09-09T06:58:48;9.67;;;9.47;;
3943;SDS011;1986;52.546;13.428;2022-09-09T07:01:16;13.50;;;12.37;;
3943;SDS011;1986;52.546;13.428;2022-09-09T07:03:45;12.40;;;11.77;;
3943;SDS011;1986;52.546;13.428;2022-09-09T07:06:15;12.60;;;12.20;;
3943;SDS011;1986;52.546;13.428;2022-09-09T07:08:44;11.77;;;11.47;;
3943;SDS011;1986;52.546;13.428;2022-09-09T07:11:18;13.77;;;13.27;;
3943;SDS011;1986;52.546;13.428;2022-09-09T07:13:46;13.30;;;12.90;;
3943;SDS011;1986;52.546;13.428;2022-09-09T07:16:15;13.70;;;13.30;;
3943;SDS011;1986;52.546;13.428;2022-09-09T07:18:44;16.60;;;15.50;;
3943;SDS011;1986;52.546;13.428;2022-09-09T07:21:11;15.63;;;14.50;;
3943;SDS011;1986;52.546;13.428;2022-09-09T07:23:40;14.00;;;13.50;;
3943;SDS011;1986;52.546;13.428;2022-09-09T07:26:08;14.00;;;13.50;;
3943;SDS011;1986;52.546;13.428;2022-09-09T07:28:37;15.27;;;14.67;;
3943;SDS011;1986;52.546;13.428;2022-09-09T07:31:05;15.40;;;14.80;;
3943;SDS011;1986;52.546;13.428;2022-09-09T07:33:33;17.30;;;16.60;;
3943;SDS011;1986;52.546;13.428;2022-09-09T07:36:02;17.63;;;16.43;;
3943;SDS011;1986;52.546;13.428;2022-09-09T07:38:31;16.60;;;15.90;;
3943;SDS011;1986;52.546;13.428;2022-09-09T07:41:02;17.10;;;16.40;;
3943;SDS011;1986;52.546;13.428;2022-09-09T07:43:30;16.70;;;16.00;;
3943;SDS011;1986;52.546;13.428;2022-09-09T07:45:59;17.50;;;16.70;;
3943;SDS011;1986;52.546;13.428;2022-09-09T07:48:27;17.33;;;16.53;;
3943;SDS011;1986;52.546;13.428;2022-09-09T07:51:02;17.70;;;16.90;;
3943;SDS011;1986;52.546;13.428;2022-09-09T07:53:34;17.23;;;16.53;;
3943;SDS011;1986;52.546;13.428;2022-09-09T07:56:04;18.17;;;17.37;;
3943;SDS011;1986;52.546;13.428;2022-09-09T07:58:31;17.60;;;16.80;;
3943;SDS011;1986;52.546;13.428;2022-09-09T08:01:00;17.80;;;17.00;;
3943;SDS011;1986;52.546;13.428;2022-09-09T08:03:31;18.93;;;17.93;;
3943;SDS011;1986;52.546;13.428;2022-09-09T08:06:00;17.80;;;17.00;;
3943;SDS011;1986;52.546;13.428;2022-09-09T08:08:28;18.10;;;17.30;;
3943;SDS011;1986;52.546;13.428;2022-09-09T08:11:00;18.33;;;17.53;;
3943;SDS011;1986;52.546;13.428;2022-09-09T08:13:32;18.00;;;17.20;;
3943;SDS011;1986;52.546;13.428;2022-09-09T08:16:08;19.00;;;18.10;;
3943;SDS011;1986;52.546;13.428;2022-09-09T08:18:37;18.70;;;17.80;;
3943;SDS011;1986;52.546;13.428;2022-09-09T08:21:06;18.03;;;17.20;;
3943;SDS011;1986;52.546;13.428;2022-09-09T08:23:36;18.53;;;17.63;;
3943;SDS011;1986;52.546;13.428;2022-09-09T08:26:09;19.00;;;18.10;;
3943;SDS011;1986;52.546;13.428;2022-09-09T08:28:37;18.40;;;17.50;;
3943;SDS011;1986;52.546;13.428;2022-09-09T08:31:05;18.70;;;17.80;;
3943;SDS011;1986;52.546;13.428;2022-09-09T08:33:35;19.63;;;18.63;;
3943;SDS011;1986;52.546;13.428;2022-09-09T08:36:03;18.77;;;17.87;;
3943;SDS011;1986;52.546;13.428;2022-09-09T08:38:32;18.73;;;17.83;;
3943;SDS011;1986;52.546;13.428;2022-09-09T08:41:04;18.60;;;17.70;;
3943;SDS011;1986;52.546;13.428;2022-09-09T08:43:43;20.73;;;19.43;;
3943;SDS011;1986;52.546;13.428;2022-09-09T08:46:15;19.00;;;18.10;;
3943;SDS011;1986;52.546;13.428;2022-09-09T08:48:50;18.13;;;17.33;;
3943;SDS011;1986;52.546;13.428;2022-09-09T08:51:24;17.80;;;17.00;;
3943;SDS011;1986;52.546;13.428;2022-09-09T08:53:53;18.83;;;17.83;;
3943;SDS011;1986;52.546;13.428;2022-09-09T08:56:25;18.10;;;17.30;;
3943;SDS011;1986;52.546;13.428;2022-09-09T08:58:55;17.13;;;16.43;;
3943;SDS011;1986;52.546;13.428;2022-09-09T09:04:32;17.00;;;16.30;;
3943;SDS011;1986;52.546;13.428;2022-09-09T09:07:09;16.80;;;16.10;;
3943;SDS011;1986;52.546;13.428;2022-09-09T09:09:44;16.70;;;16.00;;
3943;SDS011;1986;52.546;13.428;2022-09-09T09:12:19;16.83;;;16.17;;
3943;SDS011;1986;52.546;13.428;2022-09-09T09:14:49;18.50;;;17.57;;
3943;SDS011;1986;52.546;13.428;2022-09-09T09:17:17;16.80;;;16.10;;
3943;SDS011;1986;52.546;13.428;2022-09-09T09:19:47;16.67;;;16.07;;
3943;SDS011;1986;52.546;13.428;2022-09-09T09:22:16;17.53;;;16.83;;
3943;SDS011;1986;52.546;13.428;2022-09-09T09:24:49;17.73;;;17.03;;
3943;SDS011;1986;52.546;13.428;2022-09-09T09:27:20;17.50;;;16.80;;
3943;SDS011;1986;52.546;13.428;2022-09-09T09:29:56;17.50;;;16.80;;
3943;SDS011;1986;52.546;13.428;2022-09-09T09:32:24;16.90;;;16.20;;
3943;SDS011;1986;52.546;13.428;2022-09-09T09:34:56;17.83;;;17.03;;
3943;SDS011;1986;52.546;13.428;2022-09-09T09:37:27;18.40;;;17.60;;
3943;SDS011;1986;52.546;13.428;2022-09-09T09:39:56;19.17;;;18.27;;
3943;SDS011;1986;52.546;13.428;2022-09-09T09:42:34;18.77;;;17.77;;
3943;SDS011;1986;52.546;13.428;2022-09-09T09:45:14;19.07;;;17.97;;
3943;SDS011;1986;52.546;13.428;2022-09-09T09:47:46;18.93;;;18.03;;
3943;SDS011;1986;52.546;13.428;2022-09-09T09:50:26;19.20;;;18.20;;
3943;SDS011;1986;52.546;13.428;2022-09-09T09:52:53;19.30;;;18.20;;
3943;SDS011;1986;52.546;13.428;2022-09-09T09:55:22;18.87;;;17.97;;
3943;SDS011;1986;52.546;13.428;2022-09-09T09:57:50;19.33;;;18.33;;
3943;SDS011;1986;52.546;13.428;2022-09-09T10:00:19;19.13;;;18.13;;
3943;SDS011;1986;52.546;13.428;2022-09-09T10:02:50;17.90;;;17.10;;
3943;SDS011;1986;52.546;13.428;2022-09-09T10:05:19;18.07;;;17.27;;
3943;SDS011;1986;52.546;13.428;2022-09-09T10:08:05;18.70;;;17.90;;
3943;SDS011;1986;52.546;13.428;2022-09-09T10:10:42;18.37;;;17.57;;
3943;SDS011;1986;52.546;13.428;2022-09-09T10:13:33;18.57;;;17.67;;
3943;SDS011;1986;52.546;13.428;2022-09-09T10:16:09;18.53;;;17.63;;
3943;SDS011;1986;52.546;13.428;2022-09-09T10:18:50;18.60;;;17.70;;
3943;SDS011;1986;52.546;13.428;2022-09-09T10:21:31;18.90;;;18.00;;
3943;SDS011;1986;52.546;13.428;2022-09-09T10:24:40;18.73;;;17.83;;
3943;SDS011;1986;52.546;13.428;2022-09-09T10:27:27;18.67;;;17.77;;
3943;SDS011;1986;52.546;13.428;2022-09-09T10:30:04;18.60;;;17.80;;
3943;SDS011;1986;52.546;13.428;2022-09-09T10:32:40;18.80;;;17.90;;
3943;SDS011;1986;52.546;13.428;2022-09-09T10:35:18;18.47;;;17.57;;
3943;SDS011;1986;52.546;13.428;2022-09-09T10:40:45;20.20;;;19.10;;
3943;SDS011;1986;52.546;13.428;2022-09-09T10:43:28;18.93;;;18.03;;
3943;SDS011;1986;52.546;13.428;2022-09-09T10:46:09;18.93;;;18.03;;
3943;SDS011;1986;52.546;13.428;2022-09-09T10:48:46;19.07;;;18.17;;
3943;SDS011;1986;52.546;13.428;2022-09-09T10:51:24;19.10;;;18.20;;
3943;SDS011;1986;52.546;13.428;2022-09-09T10:54:09;19.20;;;18.30;;
3943;SDS011;1986;52.546;13.428;2022-09-09T10:56:54;18.93;;;18.03;;
3943;SDS011;1986;52.546;13.428;2022-09-09T10:59:26;19.03;;;18.03;;
3943;SDS011;1986;52.546;13.428;2022-09-09T11:01:56;19.10;;;18.10;;
3943;SDS011;1986;52.546;13.428;2022-09-09T11:04:27;19.60;;;18.60;;
3943;SDS011;1986;52.546;13.428;2022-09-09T11:07:00;21.70;;;20.50;;
3943;SDS011;1986;52.546;13.428;2022-09-09T11:09:35;21.37;;;19.93;;
3943;SDS011;1986;52.546;13.428;2022-09-09T11:12:09;21.50;;;20.13;;
3943;SDS011;1986;52.546;13.428;2022-09-09T11:14:45;19.40;;;18.40;;
3943;SDS011;1986;52.546;13.428;2022-09-09T11:17:16;20.13;;;18.93;;
3943;SDS011;1986;52.546;13.428;2022-09-09T11:19:46;19.20;;;18.20;;
3943;SDS011;1986;52.546;13.428;2022-09-09T11:22:15;18.60;;;17.70;;
3943;SDS011;1986;52.546;13.428;2022-09-09T11:24:50;20.00;;;18.87;;
3943;SDS011;1986;52.546;13.428;2022-09-09T11:27:22;19.60;;;18.60;;
3943;SDS011;1986;52.546;13.428;2022-09-09T11:30:13;19.43;;;18.43;;
3943;SDS011;1986;52.546;13.428;2022-09-09T11:35:58;20.40;;;19.30;;
3943;SDS011;1986;52.546;13.428;2022-09-09T11:38:45;20.47;;;19.33;;
3943;SDS011;1986;52.546;13.428;2022-09-09T11:41:13;21.10;;;19.90;;
3943;SDS011;1986;52.546;13.428;2022-09-09T11:43:43;22.00;;;20.50;;
3943;SDS011;1986;52.546;13.428;2022-09-09T11:46:12;20.90;;;19.80;;
3943;SDS011;1986;52.546;13.428;2022-09-09T11:48:43;20.70;;;19.60;;
3943;SDS011;1986;52.546;13.428;2022-09-09T11:51:11;20.40;;;19.30;;
3943;SDS011;1986;52.546;13.428;2022-09-09T11:53:50;20.10;;;19.00;;
3943;SDS011;1986;52.546;13.428;2022-09-09T11:56:25;20.67;;;19.57;;
3943;SDS011;1986;52.546;13.428;2022-09-09T11:58:56;21.63;;;20.43;;
3943;SDS011;1986;52.546;13.428;2022-09-09T12:01:36;21.03;;;19.90;;
3943;SDS011;1986;52.546;13.428;2022-09-09T12:04:10;22.13;;;20.80;;
3943;SDS011;1986;52.546;13.428;2022-09-09T12:06:45;21.00;;;19.80;;
3943;SDS011;1986;52.546;13.428;2022-09-09T12:09:18;21.27;;;20.00;;
3943;SDS011;1986;52.546;13.428;2022-09-09T12:11:49;22.77;;;20.70;;
3943;SDS011;1986;52.546;13.428;2022-09-09T12:14:22;21.40;;;20.20;;
3943;SDS011;1986;52.546;13.428;2022-09-09T12:17:09;22.13;;;20.67;;
3943;SDS011;1986;52.546;13.428;2022-09-09T12:19:43;22.00;;;20.60;;
3943;SDS011;1986;52.546;13.428;2022-09-09T12:22:15;21.30;;;20.00;;
3943;SDS011;1986;52.546;13.428;2022-09-09T12:24:52;21.63;;;20.33;;
3943;SDS011;1986;52.546;13.428;2022-09-09T12:27:27;21.73;;;20.43;;
3943;SDS011;1986;52.546;13.428;2022-09-09T12:30:03;22.33;;;20.97;;
3943;SDS011;1986;52.546;13.428;2022-09-09T12:32:35;22.57;;;21.17;;
3943;SDS011;1986;52.546;13.428;2022-09-09T12:35:03;22.70;;;21.30;;
3943;SDS011;1986;52.546;13.428;2022-09-09T12:37:35;24.17;;;22.47;;
3943;SDS011;1986;52.546;13.428;2022-09-09T12:40:05;21.87;;;20.57;;
3943;SDS011;1986;52.546;13.428;2022-09-09T12:42:44;21.80;;;20.50;;
3943;SDS011;1986;52.546;13.428;2022-09-09T12:45:17;22.20;;;20.80;;
3943;SDS011;1986;52.546;13.428;2022-09-09T12:47:50;21.30;;;20.00;;
3943;SDS011;1986;52.546;13.428;2022-09-09T12:50:23;21.20;;;19.90;;
3943;SDS011;1986;52.546;13.428;2022-09-09T12:52:54;21.20;;;19.90;;
3943;SDS011;1986;52.546;13.428;2022-09-09T12:55:27;21.13;;;19.83;;
3943;SDS011;1986;52.546;13.428;2022-09-09T12:57:56;22.00;;;20.60;;
3943;SDS011;1986;52.546;13.428;2022-09-09T13:00:26;22.67;;;21.27;;
3943;SDS011;1986;52.546;13.428;2022-09-09T13:02:56;23.10;;;21.70;;
3943;SDS011;1986;52.546;13.428;2022-09-09T13:05:25;22.70;;;21.30;;
3943;SDS011;1986;52.546;13.428;2022-09-09T13:08:00;23.17;;;21.77;;
3943;SDS011;1986;52.546;13.428;2022-09-09T13:10:28;22.90;;;21.50;;
3943;SDS011;1986;52.546;13.428;2022-09-09T13:12:58;23.63;;;22.13;;
3943;SDS011;1986;52.546;13.428;2022-09-09T13:15:29;22.20;;;20.87;;
3943;SDS011;1986;52.546;13.428;2022-09-09T13:17:57;22.87;;;21.47;;
3943;SDS011;1986;52.546;13.428;2022-09-09T13:20:26;22.40;;;21.00;;
3943;SDS011;1986;52.546;13.428;2022-09-09T13:22:54;23.03;;;21.63;;
3943;SDS011;1986;52.546;13.428;2022-09-09T13:25:24;24.60;;;22.53;;
3943;SDS011;1986;52.546;13.428;2022-09-09T13:27:53;22.53;;;21.13;;
3943;SDS011;1986;52.546;13.428;2022-09-09T13:30:23;21.20;;;20.00;;
3943;SDS011;1986;52.546;13.428;2022-09-09T13:33:20;25.10;;;23.37;;
3943;SDS011;1986;52.546;13.428;2022-09-09T13:35:49;21.90;;;20.50;;
3943;SDS011;1986;52.546;13.428;2022-09-09T13:38:20;22.73;;;21.37;;
3943;SDS011;1986;52.546;13.428;2022-09-09T13:40:54;22.20;;;20.90;;
3943;SDS011;1986;52.546;13.428;2022-09-09T13:43:23;21.90;;;20.60;;
3943;SDS011;1986;52.546;13.428;2022-09-09T13:45:54;22.33;;;20.93;;
3943;SDS011;1986;52.546;13.428;2022-09-09T13:48:24;21.80;;;20.50;;
3943;SDS011;1986;52.546;13.428;2022-09-09T13:50:55;21.70;;;20.40;;
3943;SDS011;1986;52.546;13.428;2022-09-09T13:53:24;21.90;;;20.60;;
3943;SDS011;1986;52.546;13.428;2022-09-09T13:55:52;21.80;;;20.50;;
3943;SDS011;1986;52.546;13.428;2022-09-09T13:58:19;21.90;;;20.60;;
3943;SDS011;1986;52.546;13.428;2022-09-09T14:00:47;21.50;;;20.20;;
3943;SDS011;1986;52.546;13.428;2022-09-09T14:03:15;21.30;;;20.10;;
3943;SDS011;1986;52.546;13.428;2022-09-09T14:05:44;21.70;;;20.40;;
3943;SDS011;1986;52.546;13.428;2022-09-09T14:08:19;21.77;;;20.50;;
3943;SDS011;1986;52.546;13.428;2022-09-09T14:10:50;21.10;;;19.90;;
3943;SDS011;1986;52.546;13.428;2022-09-09T14:13:18;22.17;;;20.87;;
3943;SDS011;1986;52.546;13.428;2022-09-09T14:15:47;21.60;;;20.30;;
3943;SDS011;1986;52.546;13.428;2022-09-09T14:18:17;22.17;;;20.87;;
3943;SDS011;1986;52.546;13.428;2022-09-09T14:20:46;21.83;;;20.53;;
3943;SDS011;1986;52.546;13.428;2022-09-09T14:23:15;21.70;;;20.40;;
3943;SDS011;1986;52.546;13.428;2022-09-09T14:25:45;22.50;;;21.20;;
3943;SDS011;1986;52.546;13.428;2022-09-09T14:28:14;22.00;;;20.70;;
3943;SDS011;1986;52.546;13.428;2022-09-09T14:30:42;21.03;;;19.83;;
3943;SDS011;1986;52.546;13.428;2022-09-09T14:33:12;21.60;;;20.40;;
3943;SDS011;1986;52.546;13.428;2022-09-09T14:35:42;21.27;;;20.07;;
3943;SDS011;1986;52.546;13.428;2022-09-09T14:38:10;21.60;;;20.40;;
3943;SDS011;1986;52.546;13.428;2022-09-09T14:40:37;21.27;;;19.97;;
3943;SDS011;1986;52.546;13.428;2022-09-09T14:43:06;21.40;;;20.10;;
3943;SDS011;1986;52.546;13.428;2022-09-09T14:45:39;21.43;;;20.23;;
3943;SDS011;1986;52.546;13.428;2022-09-09T14:48:11;21.57;;;20.27;;
3943;SDS011;1986;52.546;13.428;2022-09-09T14:50:40;20.90;;;19.70;;
3943;SDS011;1986;52.546;13.428;2022-09-09T14:53:08;20.80;;;19.60;;
3943;SDS011;1986;52.546;13.428;2022-09-09T14:55:46;20.90;;;19.70;;
3943;SDS011;1986;52.546;13.428;2022-09-09T14:58:14;21.23;;;20.03;;
3943;SDS011;1986;52.546;13.428;2022-09-09T15:00:41;24.37;;;22.13;;
3943;SDS011;1986;52.546;13.428;2022-09-09T15:03:07;22.07;;;20.57;;
3943;SDS011;1986;52.546;13.428;2022-09-09T15:05:35;21.20;;;20.00;;
3943;SDS011;1986;52.546;13.428;2022-09-09T15:08:03;21.30;;;20.10;;
3943;SDS011;1986;52.546;13.428;2022-09-09T15:10:32;20.60;;;19.40;;
3943;SDS011;1986;52.546;13.428;2022-09-09T15:13:00;22.03;;;20.63;;
3943;SDS011;1986;52.546;13.428;2022-09-09T15:15:29;21.40;;;20.10;;
3943;SDS011;1986;52.546;13.428;2022-09-09T15:17:59;21.50;;;20.20;;
3943;SDS011;1986;52.546;13.428;2022-09-09T15:20:26;22.60;;;21.20;;
3943;SDS011;1986;52.546;13.428;2022-09-09T15:22:53;35.17;;;22.20;;